sensor_id;sensor_type;location;lat;lon;timestamp;pressure;altitude;pressure_sealevel;temperature
72236;BMP280;60146;52.498;13.462;2024-02-26T00:02:05;96518.78;;;5.85
72236;BMP280;60146;52.498;13.462;2024-02-26T00:04:30;96505.72;;;5.78
72236;BMP280;60146;52.498;13.462;2024-02-26T00:06:56;96475.75;;;5.84
72236;BMP280;60146;52.498;13.462;2024-02-26T00:09:21;96465.44;;;5.87
72236;BMP280;60146;52.498;13.462;2024-02-26T00:11:46;96450.88;;;5.83
72236;BMP280;60146;52.498;13.462;2024-02-26T00:14:12;96445.69;;;5.83
72236;BMP280;60146;52.498;13.462;2024-02-26T00:16:42;96437.97;;;5.86
72236;BMP280;60146;52.498;13.462;2024-02-26T00:19:07;96441.72;;;5.89
72236;BMP280;60146;52.498;13.462;2024-02-26T00:21:32;96451.28;;;5.85
72236;BMP280;60146;52.498;13.462;2024-02-26T00:23:58;96433.53;;;5.87
72236;BMP280;60146;52.498;13.462;2024-02-26T00:26:23;96436.59;;;5.92
72236;BMP280;60146;52.498;13.462;2024-02-26T00:28:49;96459.38;;;5.80
72236;BMP280;60146;52.498;13.462;2024-02-26T00:31:14;96480.25;;;5.65
72236;BMP280;60146;52.498;13.462;2024-02-26T00:33:39;96456.16;;;5.64
72236;BMP280;60146;52.498;13.462;2024-02-26T00:36:05;96429.41;;;5.60
72236;BMP280;60146;52.498;13.462;2024-02-26T00:38:31;96407.75;;;5.53
72236;BMP280;60146;52.498;13.462;2024-02-26T00:40:56;96387.56;;;5.43
72236;BMP280;60146;52.498;13.462;2024-02-26T00:43:21;96374.78;;;5.32
72236;BMP280;60146;52.498;13.462;2024-02-26T00:45:47;96330.19;;;5.23
72236;BMP280;60146;52.498;13.462;2024-02-26T00:48:12;96310.34;;;5.11
72236;BMP280;60146;52.498;13.462;2024-02-26T00:50:39;96251.53;;;5.15
72236;BMP280;60146;52.498;13.462;2024-02-26T00:53:05;96213.03;;;5.17
72236;BMP280;60146;52.498;13.462;2024-02-26T00:55:30;96173.13;;;5.25
72236;BMP280;60146;52.498;13.462;2024-02-26T00:57:56;96150.88;;;5.24
72236;BMP280;60146;52.498;13.462;2024-02-26T01:00:21;96107.31;;;5.33
72236;BMP280;60146;52.498;13.462;2024-02-26T01:02:47;96082.09;;;5.30
72236;BMP280;60146;52.498;13.462;2024-02-26T01:05:13;96079.03;;;5.25
72236;BMP280;60146;52.498;13.462;2024-02-26T01:07:38;96059.44;;;5.27
72236;BMP280;60146;52.498;13.462;2024-02-26T01:10:05;96058.94;;;5.18
72236;BMP280;60146;52.498;13.462;2024-02-26T01:12:34;96049.94;;;5.09
72236;BMP280;60146;52.498;13.462;2024-02-26T01:15:00;96042.47;;;5.01
72236;BMP280;60146;52.498;13.462;2024-02-26T01:17:25;96028.69;;;4.97
72236;BMP280;60146;52.498;13.462;2024-02-26T01:19:51;96017.97;;;4.98
72236;BMP280;60146;52.498;13.462;2024-02-26T01:22:16;96011.25;;;4.94
72236;BMP280;60146;52.498;13.462;2024-02-26T01:24:41;95987.88;;;4.90
72236;BMP280;60146;52.498;13.462;2024-02-26T01:27:07;95972.66;;;4.86
72236;BMP280;60146;52.498;13.462;2024-02-26T01:29:34;95959.34;;;4.87
72236;BMP280;60146;52.498;13.462;2024-02-26T01:31:59;95921.56;;;4.86
72236;BMP280;60146;52.498;13.462;2024-02-26T01:34:25;95883.41;;;4.83
72236;BMP280;60146;52.498;13.462;2024-02-26T01:36:50;95863.38;;;4.80
72236;BMP280;60146;52.498;13.462;2024-02-26T01:39:15;95850.03;;;4.78
72236;BMP280;60146;52.498;13.462;2024-02-26T01:41:41;95789.94;;;5.02
72236;BMP280;60146;52.498;13.462;2024-02-26T01:44:06;95794.03;;;5.03
72236;BMP280;60146;52.498;13.462;2024-02-26T01:46:33;95781.72;;;4.96
72236;BMP280;60146;52.498;13.462;2024-02-26T01:49:00;95744.41;;;5.08
72236;BMP280;60146;52.498;13.462;2024-02-26T01:51:26;95754.34;;;4.99
72236;BMP280;60146;52.498;13.462;2024-02-26T01:53:52;95758.75;;;4.95
72236;BMP280;60146;52.498;13.462;2024-02-26T01:56:19;95750.19;;;4.91
72236;BMP280;60146;52.498;13.462;2024-02-26T01:58:47;95734.28;;;4.89
72236;BMP280;60146;52.498;13.462;2024-02-26T02:01:15;95736.91;;;4.92
72236;BMP280;60146;52.498;13.462;2024-02-26T02:03:41;95715.09;;;4.97
72236;BMP280;60146;52.498;13.462;2024-02-26T02:06:07;95718.03;;;4.95
72236;BMP280;60146;52.498;13.462;2024-02-26T02:08:33;95696.66;;;5.09
72236;BMP280;60146;52.498;13.462;2024-02-26T02:11:00;95718.47;;;5.01
72236;BMP280;60146;52.498;13.462;2024-02-26T02:13:25;95727.38;;;5.03
72236;BMP280;60146;52.498;13.462;2024-02-26T02:15:51;95728.44;;;4.99
72236;BMP280;60146;52.498;13.462;2024-02-26T02:18:17;95722.16;;;5.00
72236;BMP280;60146;52.498;13.462;2024-02-26T02:20:42;95727.03;;;5.05
72236;BMP280;60146;52.498;13.462;2024-02-26T02:23:08;95720.38;;;5.10
72236;BMP280;60146;52.498;13.462;2024-02-26T02:25:34;95742.56;;;5.08
72236;BMP280;60146;52.498;13.462;2024-02-26T02:27:59;95761.13;;;5.13
72236;BMP280;60146;52.498;13.462;2024-02-26T02:30:29;95784.03;;;5.05
72236;BMP280;60146;52.498;13.462;2024-02-26T02:32:55;95787.34;;;5.02
72236;BMP280;60146;52.498;13.462;2024-02-26T02:35:20;95794.38;;;5.01
72236;BMP280;60146;52.498;13.462;2024-02-26T02:37:46;95790.03;;;5.15
72236;BMP280;60146;52.498;13.462;2024-02-26T02:40:11;95824.13;;;5.17
72236;BMP280;60146;52.498;13.462;2024-02-26T02:42:37;95860.75;;;5.12
72236;BMP280;60146;52.498;13.462;2024-02-26T02:45:03;95889.53;;;5.01
72236;BMP280;60146;52.498;13.462;2024-02-26T02:47:28;95885.13;;;5.05
72236;BMP280;60146;52.498;13.462;2024-02-26T02:49:53;95875.50;;;5.05
72236;BMP280;60146;52.498;13.462;2024-02-26T02:52:19;95866.94;;;5.01
72236;BMP280;60146;52.498;13.462;2024-02-26T02:54:44;95866.22;;;5.01
72236;BMP280;60146;52.498;13.462;2024-02-26T02:57:12;95877.91;;;4.88
72236;BMP280;60146;52.498;13.462;2024-02-26T02:59:37;95856.03;;;4.86
72236;BMP280;60146;52.498;13.462;2024-02-26T03:02:03;95830.88;;;4.86
72236;BMP280;60146;52.498;13.462;2024-02-26T03:04:28;95824.66;;;4.94
72236;BMP280;60146;52.498;13.462;2024-02-26T03:06:54;95820.91;;;4.88
72236;BMP280;60146;52.498;13.462;2024-02-26T03:09:20;95820.53;;;4.89
72236;BMP280;60146;52.498;13.462;2024-02-26T03:11:46;95840.06;;;4.80
72236;BMP280;60146;52.498;13.462;2024-02-26T03:14:14;95824.81;;;4.72
72236;BMP280;60146;52.498;13.462;2024-02-26T03:16:40;95809.94;;;4.66
72236;BMP280;60146;52.498;13.462;2024-02-26T03:19:08;95795.41;;;4.58
72236;BMP280;60146;52.498;13.462;2024-02-26T03:21:34;95785.38;;;4.53
72236;BMP280;60146;52.498;13.462;2024-02-26T03:23:59;95741.09;;;4.65
72236;BMP280;60146;52.498;13.462;2024-02-26T03:26:25;95740.28;;;4.57
72236;BMP280;60146;52.498;13.462;2024-02-26T03:28:50;95750.28;;;4.55
72236;BMP280;60146;52.498;13.462;2024-02-26T03:31:24;95737.81;;;4.71
72236;BMP280;60146;52.498;13.462;2024-02-26T03:33:49;95737.81;;;4.71
72236;BMP280;60146;52.498;13.462;2024-02-26T03:36:24;95742.25;;;4.70
72236;BMP280;60146;52.498;13.462;2024-02-26T03:39:22;95760.34;;;4.64
72236;BMP280;60146;52.498;13.462;2024-02-26T03:41:47;95781.34;;;4.59
72236;BMP280;60146;52.498;13.462;2024-02-26T03:44:13;95797.53;;;4.49
72236;BMP280;60146;52.498;13.462;2024-02-26T03:46:38;95790.13;;;4.47
72236;BMP280;60146;52.498;13.462;2024-02-26T03:49:03;95798.19;;;4.39
72236;BMP280;60146;52.498;13.462;2024-02-26T03:51:29;95770.44;;;4.43
72236;BMP280;60146;52.498;13.462;2024-02-26T03:53:57;95756.09;;;4.45
72236;BMP280;60146;52.498;13.462;2024-02-26T03:56:23;95746.03;;;4.37
72236;BMP280;60146;52.498;13.462;2024-02-26T03:58:48;95723.06;;;4.36
72236;BMP280;60146;52.498;13.462;2024-02-26T04:01:14;95701.94;;;4.34
72236;BMP280;60146;52.498;13.462;2024-02-26T04:03:39;95690.81;;;4.30
72236;BMP280;60146;52.498;13.462;2024-02-26T04:06:04;95650.91;;;4.34
72236;BMP280;60146;52.498;13.462;2024-02-26T04:08:30;95627.28;;;4.36
72236;BMP280;60146;52.498;13.462;2024-02-26T04:10:56;95599.56;;;4.36
72236;BMP280;60146;52.498;13.462;2024-02-26T04:13:21;95577.38;;;4.39
72236;BMP280;60146;52.498;13.462;2024-02-26T04:15:46;95554.22;;;4.56
72236;BMP280;60146;52.498;13.462;2024-02-26T04:18:12;95563.78;;;4.52
72236;BMP280;60146;52.498;13.462;2024-02-26T04:20:37;95571.88;;;4.47
72236;BMP280;60146;52.498;13.462;2024-02-26T04:23:03;95577.00;;;4.40
72236;BMP280;60146;52.498;13.462;2024-02-26T04:25:29;95560.72;;;4.40
72236;BMP280;60146;52.498;13.462;2024-02-26T04:27:54;95542.97;;;4.42
72236;BMP280;60146;52.498;13.462;2024-02-26T04:30:20;95537.78;;;4.42
72236;BMP280;60146;52.498;13.462;2024-02-26T04:32:45;95521.59;;;4.48
72236;BMP280;60146;52.498;13.462;2024-02-26T04:35:10;95530.47;;;4.47
72236;BMP280;60146;52.498;13.462;2024-02-26T04:37:36;95520.84;;;4.47
72236;BMP280;60146;52.498;13.462;2024-02-26T04:40:01;95538.59;;;4.49
72236;BMP280;60146;52.498;13.462;2024-02-26T04:42:28;95546.06;;;4.54
72236;BMP280;60146;52.498;13.462;2024-02-26T04:44:54;95546.78;;;4.58
72236;BMP280;60146;52.498;13.462;2024-02-26T04:47:20;95545.03;;;4.68
72236;BMP280;60146;52.498;13.462;2024-02-26T04:49:48;95559.13;;;4.74
72236;BMP280;60146;52.498;13.462;2024-02-26T04:52:14;95597.19;;;4.67
72236;BMP280;60146;52.498;13.462;2024-02-26T04:54:39;95613.47;;;4.67
72236;BMP280;60146;52.498;13.462;2024-02-26T04:57:05;95633.81;;;4.66
72236;BMP280;60146;52.498;13.462;2024-02-26T04:59:30;95624.50;;;4.61
72236;BMP280;60146;52.498;13.462;2024-02-26T05:01:55;95607.53;;;4.67
72236;BMP280;60146;52.498;13.462;2024-02-26T05:04:21;95617.47;;;4.62
72236;BMP280;60146;52.498;13.462;2024-02-26T05:06:46;95620.84;;;4.66
72236;BMP280;60146;52.498;13.462;2024-02-26T05:09:12;95651.13;;;4.58
72236;BMP280;60146;52.498;13.462;2024-02-26T05:11:37;95657.78;;;4.59
72236;BMP280;60146;52.498;13.462;2024-02-26T05:14:02;95660.31;;;4.52
72236;BMP280;60146;52.498;13.462;2024-02-26T05:16:28;95660.75;;;4.54
72236;BMP280;60146;52.498;13.462;2024-02-26T05:18:55;95679.16;;;4.46
72236;BMP280;60146;52.498;13.462;2024-02-26T05:21:20;95676.84;;;4.41
72236;BMP280;60146;52.498;13.462;2024-02-26T05:23:46;95652.53;;;4.49
72236;BMP280;60146;52.498;13.462;2024-02-26T05:26:11;95641.09;;;4.53
72236;BMP280;60146;52.498;13.462;2024-02-26T05:28:36;95629.31;;;4.63
72236;BMP280;60146;52.498;13.462;2024-02-26T05:31:04;95649.63;;;4.54
72236;BMP280;60146;52.498;13.462;2024-02-26T05:33:30;95643.34;;;4.55
72236;BMP280;60146;52.498;13.462;2024-02-26T05:35:55;95635.59;;;4.55
72236;BMP280;60146;52.498;13.462;2024-02-26T05:38:20;95627.44;;;4.60
72236;BMP280;60146;52.498;13.462;2024-02-26T05:40:46;95617.84;;;4.60
72236;BMP280;60146;52.498;13.462;2024-02-26T05:43:11;95643.00;;;4.60
72236;BMP280;60146;52.498;13.462;2024-02-26T05:45:36;95631.97;;;4.66
72236;BMP280;60146;52.498;13.462;2024-02-26T05:48:02;95650.84;;;4.67
72236;BMP280;60146;52.498;13.462;2024-02-26T05:50:28;95659.72;;;4.66
72236;BMP280;60146;52.498;13.462;2024-02-26T05:52:53;95651.97;;;4.72
72236;BMP280;60146;52.498;13.462;2024-02-26T05:55:19;95671.94;;;4.68
72236;BMP280;60146;52.498;13.462;2024-02-26T05:57:44;95663.03;;;4.66
72236;BMP280;60146;52.498;13.462;2024-02-26T06:00:10;95678.53;;;4.63
72236;BMP280;60146;52.498;13.462;2024-02-26T06:02:37;95673.34;;;4.63
72236;BMP280;60146;52.498;13.462;2024-02-26T06:05:03;95666.34;;;4.63
72236;BMP280;60146;52.498;13.462;2024-02-26T06:07:29;95671.19;;;4.65
72236;BMP280;60146;52.498;13.462;2024-02-26T06:09:54;95670.75;;;4.63
72236;BMP280;60146;52.498;13.462;2024-02-26T06:12:19;95654.56;;;4.69
72236;BMP280;60146;52.498;13.462;2024-02-26T06:14:44;95651.97;;;4.72
72236;BMP280;60146;52.498;13.462;2024-02-26T06:17:10;95667.53;;;4.72
72236;BMP280;60146;52.498;13.462;2024-02-26T06:19:35;95659.78;;;4.79
72236;BMP280;60146;52.498;13.462;2024-02-26T06:22:00;95672.38;;;4.81
72236;BMP280;60146;52.498;13.462;2024-02-26T06:24:26;95670.63;;;4.88
72236;BMP280;60146;52.498;13.462;2024-02-26T06:26:51;95687.69;;;4.96
72236;BMP280;60146;52.498;13.462;2024-02-26T06:29:17;95708.41;;;4.96
72236;BMP280;60146;52.498;13.462;2024-02-26T06:31:42;95713.28;;;5.01
72236;BMP280;60146;52.498;13.462;2024-02-26T06:34:08;95746.22;;;5.00
72236;BMP280;60146;52.498;13.462;2024-02-26T06:36:33;95754.47;;;5.12
72236;BMP280;60146;52.498;13.462;2024-02-26T06:38:59;95771.91;;;5.19
72236;BMP280;60146;52.498;13.462;2024-02-26T06:41:25;95784.19;;;5.25
72236;BMP280;60146;52.498;13.462;2024-02-26T06:43:53;95802.06;;;5.37
72236;BMP280;60146;52.498;13.462;2024-02-26T06:46:19;95830.63;;;5.40
72236;BMP280;60146;52.498;13.462;2024-02-26T06:48:44;95854.00;;;5.47
72236;BMP280;60146;52.498;13.462;2024-02-26T06:51:09;95902.97;;;5.55
72236;BMP280;60146;52.498;13.462;2024-02-26T06:53:35;95924.25;;;5.71
72236;BMP280;60146;52.498;13.462;2024-02-26T06:56:00;95995.00;;;5.65
72236;BMP280;60146;52.498;13.462;2024-02-26T06:58:25;96015.78;;;5.68
72236;BMP280;60146;52.498;13.462;2024-02-26T07:00:51;96022.16;;;5.74
72236;BMP280;60146;52.498;13.462;2024-02-26T07:03:16;96042.25;;;5.84
72236;BMP280;60146;52.498;13.462;2024-02-26T07:05:42;96100.81;;;5.78
72236;BMP280;60146;52.498;13.462;2024-02-26T07:08:07;96126.06;;;5.81
72236;BMP280;60146;52.498;13.462;2024-02-26T07:10:32;96149.03;;;5.79
72236;BMP280;60146;52.498;13.462;2024-02-26T07:12:58;96171.63;;;5.82
72236;BMP280;60146;52.498;13.462;2024-02-26T07:15:23;96176.47;;;5.83
72236;BMP280;60146;52.498;13.462;2024-02-26T07:17:49;96151.00;;;5.92
72236;BMP280;60146;52.498;13.462;2024-02-26T07:20:15;96146.63;;;5.99
72236;BMP280;60146;52.498;13.462;2024-02-26T07:22:40;96162.34;;;6.13
72236;BMP280;60146;52.498;13.462;2024-02-26T07:25:07;96203.59;;;6.18
72236;BMP280;60146;52.498;13.462;2024-02-26T07:27:34;96256.00;;;6.27
72236;BMP280;60146;52.498;13.462;2024-02-26T07:29:59;96328.84;;;6.37
72236;BMP280;60146;52.498;13.462;2024-02-26T07:32:24;96378.00;;;6.49
72236;BMP280;60146;52.498;13.462;2024-02-26T07:34:50;96395.69;;;6.69
72236;BMP280;60146;52.498;13.462;2024-02-26T07:37:16;96533.69;;;6.82
72236;BMP280;60146;52.498;13.462;2024-02-26T07:39:41;96577.28;;;6.92
72236;BMP280;60146;52.498;13.462;2024-02-26T07:42:07;96642.53;;;7.09
72236;BMP280;60146;52.498;13.462;2024-02-26T07:44:33;96788.59;;;7.33
72236;BMP280;60146;52.498;13.462;2024-02-26T07:46:58;96871.47;;;7.53
72236;BMP280;60146;52.498;13.462;2024-02-26T07:49:23;96960.69;;;7.72
72236;BMP280;60146;52.498;13.462;2024-02-26T07:51:49;97021.56;;;8.05
72236;BMP280;60146;52.498;13.462;2024-02-26T07:54:14;97282.69;;;8.51
72236;BMP280;60146;52.498;13.462;2024-02-26T07:56:41;97500.97;;;8.99
72236;BMP280;60146;52.498;13.462;2024-02-26T07:59:07;97841.47;;;9.59
72236;BMP280;60146;52.498;13.462;2024-02-26T08:03:59;98318.50;;;10.57
72236;BMP280;60146;52.498;13.462;2024-02-26T08:06:25;98574.75;;;10.82
72236;BMP280;60146;52.498;13.462;2024-02-26T08:08:50;98628.03;;;10.86
72236;BMP280;60146;52.498;13.462;2024-02-26T08:11:16;98714.88;;;10.76
72236;BMP280;60146;52.498;13.462;2024-02-26T08:13:41;98649.41;;;10.64
72236;BMP280;60146;52.498;13.462;2024-02-26T08:16:07;98675.69;;;10.56
72236;BMP280;60146;52.498;13.462;2024-02-26T08:18:32;98556.88;;;10.25
72236;BMP280;60146;52.498;13.462;2024-02-26T08:20:57;98517.72;;;10.17
72236;BMP280;60146;52.498;13.462;2024-02-26T08:23:23;98407.09;;;10.16
72236;BMP280;60146;52.498;13.462;2024-02-26T08:25:48;98513.94;;;10.26
72236;BMP280;60146;52.498;13.462;2024-02-26T08:28:14;98527.44;;;10.40
72236;BMP280;60146;52.498;13.462;2024-02-26T08:30:39;98509.03;;;10.75
72236;BMP280;60146;52.498;13.462;2024-02-26T08:33:04;98674.50;;;11.24
72236;BMP280;60146;52.498;13.462;2024-02-26T08:35:30;99109.13;;;12.37
72236;BMP280;60146;52.498;13.462;2024-02-26T08:37:55;99399.69;;;13.60
72236;BMP280;60146;52.498;13.462;2024-02-26T08:40:21;99649.94;;;14.54
72236;BMP280;60146;52.498;13.462;2024-02-26T08:42:46;99788.59;;;14.66
72236;BMP280;60146;52.498;13.462;2024-02-26T08:45:11;99805.94;;;14.55
72236;BMP280;60146;52.498;13.462;2024-02-26T08:47:37;99813.00;;;14.63
72236;BMP280;60146;52.498;13.462;2024-02-26T08:50:04;99837.31;;;15.04
72236;BMP280;60146;52.498;13.462;2024-02-26T08:52:29;99844.72;;;15.22
72236;BMP280;60146;52.498;13.462;2024-02-26T08:54:55;99901.56;;;15.78
72236;BMP280;60146;52.498;13.462;2024-02-26T08:57:20;99988.69;;;16.13
72236;BMP280;60146;52.498;13.462;2024-02-26T08:59:45;100022.63;;;16.34
72236;BMP280;60146;52.498;13.462;2024-02-26T09:02:10;100055.72;;;17.51
72236;BMP280;60146;52.498;13.462;2024-02-26T09:04:36;100102.69;;;17.65
72236;BMP280;60146;52.498;13.462;2024-02-26T09:07:02;100102.69;;;17.24
72236;BMP280;60146;52.498;13.462;2024-02-26T09:09:27;100106.88;;;16.59
72236;BMP280;60146;52.498;13.462;2024-02-26T09:11:52;100095.63;;;15.92
72236;BMP280;60146;52.498;13.462;2024-02-26T09:14:20;100091.25;;;16.43
72236;BMP280;60146;52.498;13.462;2024-02-26T09:16:45;100103.28;;;17.32
72236;BMP280;60146;52.498;13.462;2024-02-26T09:19:10;100104.13;;;17.21
72236;BMP280;60146;52.498;13.462;2024-02-26T09:21:35;100115.78;;;17.05
72236;BMP280;60146;52.498;13.462;2024-02-26T09:24:01;100114.13;;;16.50
72236;BMP280;60146;52.498;13.462;2024-02-26T09:26:26;100120.00;;;16.21
72236;BMP280;60146;52.498;13.462;2024-02-26T09:28:52;100108.25;;;15.63
72236;BMP280;60146;52.498;13.462;2024-02-26T09:31:17;100101.81;;;15.41
72236;BMP280;60146;52.498;13.462;2024-02-26T09:33:43;100093.34;;;15.47
72236;BMP280;60146;52.498;13.462;2024-02-26T09:36:09;100108.84;;;15.69
72236;BMP280;60146;52.498;13.462;2024-02-26T09:38:36;100106.22;;;16.39
72236;BMP280;60146;52.498;13.462;2024-02-26T09:41:05;100110.88;;;17.19
72236;BMP280;60146;52.498;13.462;2024-02-26T09:43:38;100113.44;;;18.02
72236;BMP280;60146;52.498;13.462;2024-02-26T09:46:05;100129.50;;;18.58
72236;BMP280;60146;52.498;13.462;2024-02-26T09:48:31;100155.44;;;19.38
72236;BMP280;60146;52.498;13.462;2024-02-26T09:50:57;100181.66;;;20.27
72236;BMP280;60146;52.498;13.462;2024-02-26T09:53:22;100202.97;;;21.49
72236;BMP280;60146;52.498;13.462;2024-02-26T09:55:48;100225.69;;;22.14
72236;BMP280;60146;52.498;13.462;2024-02-26T09:58:13;100226.34;;;21.59
72236;BMP280;60146;52.498;13.462;2024-02-26T10:00:47;100240.88;;;22.56
72236;BMP280;60146;52.498;13.462;2024-02-26T10:03:16;100235.34;;;22.29
72236;BMP280;60146;52.498;13.462;2024-02-26T10:05:44;100237.84;;;22.61
72236;BMP280;60146;52.498;13.462;2024-02-26T10:08:10;100240.34;;;23.14
72236;BMP280;60146;52.498;13.462;2024-02-26T10:10:37;100235.53;;;23.97
72236;BMP280;60146;52.498;13.462;2024-02-26T10:13:03;100243.13;;;23.61
72236;BMP280;60146;52.498;13.462;2024-02-26T10:15:35;100245.84;;;23.89
72236;BMP280;60146;52.498;13.462;2024-02-26T10:18:04;100246.94;;;23.40
72236;BMP280;60146;52.498;13.462;2024-02-26T10:20:29;100247.25;;;23.15
72236;BMP280;60146;52.498;13.462;2024-02-26T10:22:56;100245.75;;;23.27
72236;BMP280;60146;52.498;13.462;2024-02-26T10:25:22;100243.50;;;23.53
72236;BMP280;60146;52.498;13.462;2024-02-26T10:27:47;100236.16;;;24.56
72236;BMP280;60146;52.498;13.462;2024-02-26T10:30:17;100249.22;;;24.54
72236;BMP280;60146;52.498;13.462;2024-02-26T10:32:44;100247.75;;;23.95
72236;BMP280;60146;52.498;13.462;2024-02-26T10:35:10;100249.81;;;24.99
72236;BMP280;60146;52.498;13.462;2024-02-26T10:37:35;100240.44;;;24.36
72236;BMP280;60146;52.498;13.462;2024-02-26T10:40:01;100250.97;;;24.91
72236;BMP280;60146;52.498;13.462;2024-02-26T10:42:27;100241.13;;;24.61
72236;BMP280;60146;52.498;13.462;2024-02-26T10:44:52;100238.63;;;25.07
72236;BMP280;60146;52.498;13.462;2024-02-26T10:47:17;100242.28;;;25.86
72236;BMP280;60146;52.498;13.462;2024-02-26T10:49:46;100241.91;;;25.81
72236;BMP280;60146;52.498;13.462;2024-02-26T10:52:13;100245.38;;;25.85
72236;BMP280;60146;52.498;13.462;2024-02-26T10:54:41;100245.41;;;26.17
72236;BMP280;60146;52.498;13.462;2024-02-26T10:57:08;100243.66;;;26.04
72236;BMP280;60146;52.498;13.462;2024-02-26T10:59:35;100251.56;;;25.78
72236;BMP280;60146;52.498;13.462;2024-02-26T11:02:01;100256.19;;;26.82
72236;BMP280;60146;52.498;13.462;2024-02-26T11:04:27;100255.16;;;27.02
72236;BMP280;60146;52.498;13.462;2024-02-26T11:06:56;100257.00;;;27.34
72236;BMP280;60146;52.498;13.462;2024-02-26T11:09:22;100250.03;;;28.23
72236;BMP280;60146;52.498;13.462;2024-02-26T11:11:49;100249.06;;;27.72
72236;BMP280;60146;52.498;13.462;2024-02-26T11:14:15;100243.75;;;28.29
72236;BMP280;60146;52.498;13.462;2024-02-26T11:16:41;100247.91;;;27.73
72236;BMP280;60146;52.498;13.462;2024-02-26T11:19:08;100247.34;;;26.20
72236;BMP280;60146;52.498;13.462;2024-02-26T11:21:35;100244.72;;;26.13
72236;BMP280;60146;52.498;13.462;2024-02-26T11:24:15;100240.53;;;25.63
72236;BMP280;60146;52.498;13.462;2024-02-26T11:26:50;100243.28;;;26.02
72236;BMP280;60146;52.498;13.462;2024-02-26T11:29:22;100246.47;;;24.64
72236;BMP280;60146;52.498;13.462;2024-02-26T11:31:47;100241.75;;;24.99
72236;BMP280;60146;52.498;13.462;2024-02-26T11:34:13;100241.22;;;24.20
72236;BMP280;60146;52.498;13.462;2024-02-26T11:36:38;100242.75;;;24.21
72236;BMP280;60146;52.498;13.462;2024-02-26T11:39:04;100247.34;;;23.59
72236;BMP280;60146;52.498;13.462;2024-02-26T11:41:30;100244.09;;;22.26
72236;BMP280;60146;52.498;13.462;2024-02-26T11:44:00;100242.34;;;22.47
72236;BMP280;60146;52.498;13.462;2024-02-26T11:46:32;100234.34;;;21.98
72236;BMP280;60146;52.498;13.462;2024-02-26T11:49:00;100241.56;;;22.47
72236;BMP280;60146;52.498;13.462;2024-02-26T11:51:33;100234.78;;;21.64
72236;BMP280;60146;52.498;13.462;2024-02-26T11:53:58;100235.97;;;22.12
72236;BMP280;60146;52.498;13.462;2024-02-26T11:56:24;100241.69;;;21.69
72236;BMP280;60146;52.498;13.462;2024-02-26T11:59:01;100238.75;;;21.80
72236;BMP280;60146;52.498;13.462;2024-02-26T12:01:40;100236.22;;;21.58
72236;BMP280;60146;52.498;13.462;2024-02-26T12:04:07;100239.13;;;21.79
72236;BMP280;60146;52.498;13.462;2024-02-26T12:06:46;100243.59;;;21.33
72236;BMP280;60146;52.498;13.462;2024-02-26T12:09:11;100234.00;;;21.28
72236;BMP280;60146;52.498;13.462;2024-02-26T12:11:38;100244.69;;;21.64
72236;BMP280;60146;52.498;13.462;2024-02-26T12:14:05;100231.66;;;21.59
72236;BMP280;60146;52.498;13.462;2024-02-26T12:16:36;100227.84;;;21.56
72236;BMP280;60146;52.498;13.462;2024-02-26T12:19:06;100227.19;;;21.02
72236;BMP280;60146;52.498;13.462;2024-02-26T12:21:36;100226.50;;;21.08
72236;BMP280;60146;52.498;13.462;2024-02-26T12:24:11;100231.66;;;21.56
72236;BMP280;60146;52.498;13.462;2024-02-26T12:26:38;100235.19;;;22.09
72236;BMP280;60146;52.498;13.462;2024-02-26T12:29:04;100236.78;;;22.20
72236;BMP280;60146;52.498;13.462;2024-02-26T12:31:30;100238.50;;;22.51
72236;BMP280;60146;52.498;13.462;2024-02-26T12:33:56;100235.38;;;23.09
72236;BMP280;60146;52.498;13.462;2024-02-26T12:36:23;100252.38;;;22.64
72236;BMP280;60146;52.498;13.462;2024-02-26T12:38:50;100250.78;;;22.59
72236;BMP280;60146;52.498;13.462;2024-02-26T12:41:16;100252.16;;;22.96
72236;BMP280;60146;52.498;13.462;2024-02-26T12:43:42;100249.03;;;22.87
72236;BMP280;60146;52.498;13.462;2024-02-26T12:46:07;100253.41;;;24.51
72236;BMP280;60146;52.498;13.462;2024-02-26T12:48:33;100254.94;;;25.39
72236;BMP280;60146;52.498;13.462;2024-02-26T12:50:59;100256.94;;;25.78
72236;BMP280;60146;52.498;13.462;2024-02-26T12:53:24;100246.97;;;25.22
72236;BMP280;60146;52.498;13.462;2024-02-26T12:55:50;100240.31;;;23.03
72236;BMP280;60146;52.498;13.462;2024-02-26T12:58:16;100242.47;;;22.71
72236;BMP280;60146;52.498;13.462;2024-02-26T13:00:42;100234.91;;;22.83
72236;BMP280;60146;52.498;13.462;2024-02-26T13:03:08;100244.13;;;22.99
72236;BMP280;60146;52.498;13.462;2024-02-26T13:05:34;100244.19;;;23.16
72236;BMP280;60146;52.498;13.462;2024-02-26T13:08:00;100237.41;;;23.53
72236;BMP280;60146;52.498;13.462;2024-02-26T13:10:26;100236.50;;;23.01
72236;BMP280;60146;52.498;13.462;2024-02-26T13:12:51;100242.53;;;22.22
72236;BMP280;60146;52.498;13.462;2024-02-26T13:15:18;100245.31;;;20.90
72236;BMP280;60146;52.498;13.462;2024-02-26T13:17:45;100236.63;;;20.39
72236;BMP280;60146;52.498;13.462;2024-02-26T13:20:10;100245.06;;;19.60
72236;BMP280;60146;52.498;13.462;2024-02-26T13:22:37;100244.31;;;19.04
72236;BMP280;60146;52.498;13.462;2024-02-26T13:25:03;100245.03;;;19.01
72236;BMP280;60146;52.498;13.462;2024-02-26T13:27:28;100246.06;;;18.97
72236;BMP280;60146;52.498;13.462;2024-02-26T13:32:32;100243.56;;;18.70
72236;BMP280;60146;52.498;13.462;2024-02-26T13:35:08;100248.38;;;18.49
72236;BMP280;60146;52.498;13.462;2024-02-26T13:37:35;100246.31;;;18.28
72236;BMP280;60146;52.498;13.462;2024-02-26T13:40:00;100247.47;;;17.58
72236;BMP280;60146;52.498;13.462;2024-02-26T13:42:29;100251.28;;;17.45
72236;BMP280;60146;52.498;13.462;2024-02-26T13:44:55;100236.47;;;17.18
72236;BMP280;60146;52.498;13.462;2024-02-26T13:47:20;100248.63;;;16.95
72236;BMP280;60146;52.498;13.462;2024-02-26T13:49:45;100242.44;;;16.45
72236;BMP280;60146;52.498;13.462;2024-02-26T13:52:11;100247.75;;;16.33
72236;BMP280;60146;52.498;13.462;2024-02-26T13:54:36;100249.84;;;15.96
72236;BMP280;60146;52.498;13.462;2024-02-26T13:57:03;100254.72;;;16.06
72236;BMP280;60146;52.498;13.462;2024-02-26T13:59:29;100260.41;;;15.96